createdAt,value
2019-02-20T00:01:54.161Z,79.90
2019-02-20T00:04:23.848Z,80.30
2019-02-20T00:06:53.515Z,80.60
2019-02-20T00:09:25.073Z,80.40
2019-02-20T00:11:54.629Z,80.40
2019-02-20T00:14:25.001Z,81.40
2019-02-20T00:16:54.714Z,81.80
2019-02-20T00:19:24.986Z,81.70
2019-02-20T00:21:54.687Z,81.00
2019-02-20T00:24:24.190Z,81.40
2019-02-20T00:26:53.862Z,83.20
2019-02-20T00:29:24.067Z,81.70
2019-02-20T00:31:54.004Z,83.20
2019-02-20T00:34:24.252Z,83.60
2019-02-20T00:36:56.687Z,83.90
2019-02-20T00:39:30.687Z,84.50
2019-02-20T00:42:00.467Z,84.90
2019-02-20T00:44:58.208Z,85.30
2019-02-20T00:47:58.744Z,85.50
2019-02-20T00:50:30.110Z,85.90
2019-02-20T00:53:05.503Z,86.60
2019-02-20T00:55:35.153Z,86.80
2019-02-20T00:58:05.615Z,86.70
2019-02-20T01:00:35.211Z,87.00
2019-02-20T01:03:05.672Z,87.40
2019-02-20T01:05:35.258Z,86.10
2019-02-20T01:08:06.508Z,86.20
2019-02-20T01:10:36.124Z,86.50
2019-02-20T01:13:08.407Z,86.40
2019-02-20T01:15:37.974Z,86.70
2019-02-20T01:18:07.823Z,86.80
2019-02-20T01:20:37.384Z,85.80
2019-02-20T01:23:08.418Z,85.70
2019-02-20T01:25:38.040Z,85.50
2019-02-20T01:28:09.366Z,85.80
2019-02-20T01:30:39.002Z,85.10
2019-02-20T01:33:10.776Z,85.10
2019-02-20T01:35:40.327Z,84.70
2019-02-20T01:38:10.996Z,84.60
2019-02-20T01:40:40.651Z,83.90
2019-02-20T01:43:12.489Z,84.40
2019-02-20T01:45:42.289Z,84.30
2019-02-20T01:48:11.922Z,84.80
2019-02-20T01:50:41.488Z,84.70
2019-02-20T01:53:12.039Z,84.60
2019-02-20T01:55:41.619Z,84.60
2019-02-20T01:58:12.293Z,83.80
2019-02-20T02:00:41.994Z,84.20
2019-02-20T02:03:12.776Z,84.40
2019-02-20T02:05:42.336Z,84.10
2019-02-20T02:08:12.841Z,84.20
2019-02-20T02:10:42.455Z,84.00
2019-02-20T02:13:12.767Z,84.30
2019-02-20T02:15:42.375Z,83.90
2019-02-20T02:18:12.846Z,84.30
2019-02-20T02:20:42.406Z,84.00
2019-02-20T02:23:19.806Z,83.30
2019-02-20T02:25:45.245Z,83.40
2019-02-20T02:28:14.928Z,83.80
2019-02-20T02:30:44.596Z,84.40
2019-02-20T02:33:15.011Z,84.80
2019-02-20T02:35:44.654Z,84.70
2019-02-20T02:38:15.137Z,84.30
2019-02-20T02:40:44.730Z,84.10
2019-02-20T02:43:15.100Z,84.20
2019-02-20T02:45:44.709Z,84.20
2019-02-20T02:48:14.921Z,83.90
2019-02-20T02:50:44.912Z,83.70
2019-02-20T02:53:15.196Z,83.90
2019-02-20T02:55:45.023Z,83.90
2019-02-20T02:58:15.161Z,84.80
2019-02-20T03:00:44.868Z,85.20
2019-02-20T03:03:15.154Z,85.20
2019-02-20T03:05:45.262Z,85.30
2019-02-20T03:08:15.580Z,85.20
2019-02-20T03:10:45.338Z,84.70
2019-02-20T03:13:15.659Z,85.00
2019-02-20T03:15:45.365Z,85.00
2019-02-20T03:18:15.673Z,84.80
2019-02-20T03:20:45.377Z,85.00
2019-02-20T03:23:15.029Z,84.50
2019-02-20T03:25:44.707Z,84.70
2019-02-20T03:28:15.012Z,84.70
2019-02-20T03:30:44.632Z,84.50
2019-02-20T03:33:14.992Z,85.30
2019-02-20T03:35:44.715Z,85.30
2019-02-20T03:38:14.990Z,85.20
2019-02-20T03:40:44.693Z,84.10
2019-02-20T03:43:15.072Z,84.00
2019-02-20T03:45:44.727Z,84.30
2019-02-20T03:48:15.014Z,84.50
2019-02-20T03:50:44.996Z,85.10
2019-02-20T03:53:15.313Z,84.70
2019-02-20T03:55:44.982Z,84.70
2019-02-20T03:58:15.540Z,84.80
2019-02-20T04:00:45.247Z,84.70
2019-02-20T04:03:15.570Z,84.80
2019-02-20T04:05:45.315Z,84.50
2019-02-20T04:08:15.631Z,84.80
2019-02-20T04:10:45.325Z,85.10
2019-02-20T04:13:14.898Z,84.60
2019-02-20T04:15:44.548Z,84.30
2019-02-20T04:18:14.880Z,84.50
2019-02-20T04:20:44.600Z,84.90
2019-02-20T04:23:14.918Z,85.00
2019-02-20T04:25:44.608Z,84.70
2019-02-20T04:28:14.968Z,84.10
2019-02-20T04:30:44.640Z,83.90
2019-02-20T04:33:15.008Z,84.30
2019-02-20T04:35:44.697Z,84.20
2019-02-20T04:38:15.007Z,84.40
2019-02-20T04:40:44.735Z,85.30
2019-02-20T04:43:14.323Z,84.90
2019-02-20T04:45:44.019Z,84.90
2019-02-20T04:48:13.659Z,84.90
2019-02-20T04:50:43.484Z,84.90
2019-02-20T04:53:13.897Z,85.00
2019-02-20T04:55:43.981Z,85.00
2019-02-20T04:58:24.261Z,84.80
2019-02-20T05:00:53.954Z,84.70
2019-02-20T05:03:24.317Z,85.60
2019-02-20T05:05:54.020Z,85.10
2019-02-20T05:08:24.311Z,85.20
2019-02-20T05:10:54.017Z,85.90
2019-02-20T05:13:24.350Z,86.30
2019-02-20T05:15:54.912Z,86.60
2019-02-20T05:18:25.346Z,86.70
2019-02-20T05:20:54.983Z,86.70
2019-02-20T05:23:25.484Z,86.60
2019-02-20T05:25:55.071Z,87.00
2019-02-20T05:28:25.554Z,86.80
2019-02-20T05:30:55.187Z,86.90
2019-02-20T05:33:25.095Z,86.90
2019-02-20T05:35:55.720Z,87.30
2019-02-20T05:38:26.758Z,86.80
2019-02-20T05:40:56.397Z,87.00
2019-02-20T05:43:28.347Z,86.90
2019-02-20T05:45:58.332Z,86.80
2019-02-20T05:48:30.113Z,86.70
2019-02-20T05:50:59.673Z,86.90
2019-02-20T05:53:30.087Z,86.90
2019-02-20T05:55:59.674Z,86.90
2019-02-20T05:58:31.442Z,86.50
2019-02-20T06:01:01.464Z,86.70
2019-02-20T06:03:31.690Z,87.10
2019-02-20T06:06:01.648Z,86.60
2019-02-20T06:08:32.127Z,86.70
2019-02-20T06:11:01.810Z,86.70
2019-02-20T06:13:32.693Z,86.70
2019-02-20T06:16:02.247Z,86.80
2019-02-20T06:18:32.785Z,86.90
2019-02-20T06:21:03.487Z,86.90
2019-02-20T06:23:35.045Z,87.10
2019-02-20T06:26:04.821Z,87.30
2019-02-20T06:28:35.517Z,87.00
2019-02-20T06:31:06.251Z,87.40
2019-02-20T06:33:36.766Z,87.40
2019-02-20T06:36:06.423Z,87.10
2019-02-20T06:38:36.839Z,87.00
2019-02-20T06:41:06.476Z,86.60
2019-02-20T06:43:37.256Z,86.20
2019-02-20T06:46:07.001Z,86.80
2019-02-20T06:48:37.491Z,86.50
2019-02-20T06:51:07.238Z,86.40
2019-02-20T06:53:37.772Z,86.10
2019-02-20T06:56:07.438Z,86.10
2019-02-20T06:58:37.968Z,86.20
2019-02-20T07:01:07.647Z,86.30
2019-02-20T07:03:37.409Z,85.80
2019-02-20T07:06:43.200Z,85.90
2019-02-20T07:09:49.451Z,85.70
2019-02-20T07:12:52.299Z,85.80
2019-02-20T07:15:59.175Z,85.20
2019-02-20T07:18:59.544Z,85.60
2019-02-20T07:22:13.187Z,85.30
2019-02-20T07:25:14.061Z,86.00
2019-02-20T07:28:27.271Z,84.80
2019-02-20T07:30:56.927Z,84.40
2019-02-20T07:33:26.942Z,84.10
2019-02-20T07:35:56.839Z,83.70
2019-02-20T07:38:26.490Z,83.80
2019-02-20T07:40:56.147Z,83.60
2019-02-20T07:43:27.021Z,83.30
2019-02-20T07:45:56.574Z,82.80
2019-02-20T07:48:26.975Z,82.70
2019-02-20T07:50:56.645Z,82.20
2019-02-20T07:53:27.087Z,81.20
2019-02-20T07:55:56.791Z,81.10
2019-02-20T07:58:27.476Z,81.00
2019-02-20T08:00:57.079Z,80.30
2019-02-20T08:03:29.543Z,79.70
2019-02-20T08:05:59.965Z,79.40
2019-02-20T08:08:31.279Z,78.00
2019-02-20T08:11:01.046Z,76.50
2019-02-20T08:13:39.109Z,75.60
2019-02-20T08:16:02.805Z,74.80
2019-02-20T08:18:33.291Z,74.10
2019-02-20T08:21:03.019Z,73.70
2019-02-20T08:23:32.827Z,72.20
2019-02-20T08:26:02.780Z,71.30
2019-02-20T08:28:34.121Z,71.30
2019-02-20T08:31:03.833Z,71.10
2019-02-20T08:33:34.218Z,70.90
2019-02-20T08:36:04.175Z,70.80
2019-02-20T08:38:34.687Z,70.80
2019-02-20T08:41:04.387Z,70.20
2019-02-20T08:43:34.496Z,69.90
2019-02-20T08:46:04.553Z,69.50
2019-02-20T08:48:34.169Z,69.10
2019-02-20T08:51:04.975Z,69.10
2019-02-20T08:53:34.973Z,68.60
2019-02-20T08:56:04.702Z,67.30
2019-02-20T08:58:35.103Z,66.20
2019-02-20T09:01:05.067Z,65.20
2019-02-20T09:03:34.761Z,65.10
2019-02-20T09:06:05.621Z,65.00
2019-02-20T09:08:35.931Z,64.30
2019-02-20T09:11:05.643Z,64.20
2019-02-20T09:13:36.013Z,64.80
2019-02-20T09:16:05.822Z,65.30
2019-02-20T09:18:35.447Z,66.40
2019-02-20T09:21:05.200Z,66.60
2019-02-20T09:23:35.531Z,67.20
2019-02-20T09:26:05.236Z,67.30
2019-02-20T09:28:37.189Z,67.50
2019-02-20T09:31:07.125Z,67.20
2019-02-20T09:33:36.757Z,66.70
2019-02-20T09:36:06.609Z,66.40
2019-02-20T09:38:36.320Z,65.80
2019-02-20T09:41:05.986Z,64.90
2019-02-20T09:43:36.268Z,63.70
2019-02-20T09:46:06.093Z,63.90
2019-02-20T09:48:36.423Z,63.80
2019-02-20T09:51:06.215Z,63.80
2019-02-20T09:53:36.608Z,63.50
2019-02-20T09:56:06.394Z,63.00
2019-02-20T09:58:36.954Z,63.10
2019-02-20T10:01:06.752Z,63.10
2019-02-20T10:03:37.133Z,63.40
2019-02-20T10:06:06.802Z,63.80
2019-02-20T10:08:37.128Z,64.20
2019-02-20T10:11:06.919Z,64.80
2019-02-20T10:13:37.340Z,65.30
2019-02-20T10:16:07.348Z,65.60
2019-02-20T10:18:37.912Z,65.00
2019-02-20T10:21:07.651Z,65.40
2019-02-20T10:23:38.042Z,65.20
2019-02-20T10:26:08.188Z,65.30
2019-02-20T10:28:38.460Z,65.10
2019-02-20T10:31:08.340Z,64.40
2019-02-20T10:33:38.723Z,64.00
2019-02-20T10:36:08.475Z,63.10
2019-02-20T10:38:38.863Z,63.20
2019-02-20T10:41:10.387Z,62.00
2019-02-20T10:43:41.051Z,62.60
2019-02-20T10:46:10.787Z,62.50
2019-02-20T10:48:41.155Z,61.80
2019-02-20T10:51:11.645Z,61.30
2019-02-20T10:53:41.295Z,60.90
2019-02-20T10:56:11.056Z,60.30
2019-02-20T10:58:41.606Z,60.40
2019-02-20T11:01:11.345Z,58.90
2019-02-20T11:03:41.052Z,55.90
2019-02-20T11:06:10.897Z,53.10
2019-02-20T11:08:41.347Z,50.90
2019-02-20T11:11:11.184Z,51.80
2019-02-20T11:13:41.605Z,50.70
2019-02-20T11:16:12.033Z,49.90
2019-02-20T11:18:42.568Z,49.50
2019-02-20T11:21:12.219Z,50.20
2019-02-20T11:23:42.691Z,51.00
2019-02-20T11:26:18.333Z,52.30
2019-02-20T11:28:43.910Z,53.00
2019-02-20T11:31:13.637Z,54.10
2019-02-20T11:33:43.664Z,54.20
2019-02-20T11:36:13.400Z,53.60
2019-02-20T11:38:43.887Z,54.20
2019-02-20T11:41:14.010Z,55.50
2019-02-20T11:43:44.558Z,56.60
2019-02-20T11:46:14.316Z,57.40
2019-02-20T11:48:44.127Z,58.40
2019-02-20T11:51:13.811Z,59.60
2019-02-20T11:53:46.096Z,60.40
2019-02-20T11:56:15.887Z,61.20
2019-02-20T11:58:47.127Z,60.60
2019-02-20T12:01:16.875Z,60.60
2019-02-20T12:03:46.754Z,61.40
2019-02-20T12:06:16.560Z,61.70
2019-02-20T12:08:46.684Z,62.20
2019-02-20T12:11:16.694Z,62.20
2019-02-20T12:13:46.513Z,62.70
2019-02-20T12:16:16.230Z,63.20
2019-02-20T12:18:46.037Z,63.50
2019-02-20T12:21:15.726Z,63.40
2019-02-20T12:23:46.214Z,63.00
2019-02-20T12:26:15.946Z,63.40
2019-02-20T12:28:47.224Z,63.70
2019-02-20T12:31:16.959Z,64.20
2019-02-20T12:33:47.482Z,64.20
2019-02-20T12:36:17.187Z,64.30
2019-02-20T12:38:47.745Z,64.50
2019-02-20T12:41:18.921Z,64.80
2019-02-20T12:43:48.567Z,64.60
2019-02-20T12:46:18.336Z,64.00
2019-02-20T12:48:48.949Z,64.20
2019-02-20T12:51:18.824Z,64.40
2019-02-20T12:53:49.211Z,64.90
2019-02-20T12:56:18.964Z,64.60
2019-02-20T12:58:49.584Z,64.10
2019-02-20T13:01:19.480Z,63.80
2019-02-20T13:03:49.711Z,63.90
2019-02-20T13:06:19.524Z,63.70
2019-02-20T13:08:51.181Z,63.20
2019-02-20T13:11:21.295Z,62.30
2019-02-20T13:13:51.734Z,62.10
2019-02-20T13:16:21.543Z,62.20
2019-02-20T13:18:51.940Z,61.80
2019-02-20T13:21:21.707Z,62.00
2019-02-20T13:23:52.412Z,61.70
2019-02-20T13:26:22.124Z,61.80
2019-02-20T13:28:52.546Z,61.90
2019-02-20T13:31:22.381Z,61.40
2019-02-20T13:33:52.655Z,61.70
2019-02-20T13:36:22.311Z,61.80
2019-02-20T13:38:52.073Z,62.30
2019-02-20T13:41:21.821Z,61.80
2019-02-20T13:43:51.527Z,62.00
2019-02-20T13:46:21.169Z,62.10
2019-02-20T13:48:51.602Z,61.60
2019-02-20T13:51:21.281Z,61.80
2019-02-20T13:53:51.874Z,61.60
2019-02-20T13:56:21.438Z,62.30
2019-02-20T13:58:52.050Z,62.30
2019-02-20T14:01:21.716Z,62.40
2019-02-20T14:03:53.188Z,62.90
2019-02-20T14:06:23.020Z,62.80
2019-02-20T14:08:53.456Z,62.70
2019-02-20T14:11:23.118Z,62.80
2019-02-20T14:13:53.212Z,63.30
2019-02-20T14:16:22.781Z,63.30
2019-02-20T14:18:52.473Z,63.20
2019-02-20T14:21:22.357Z,62.40
2019-02-20T14:23:52.918Z,63.20
2019-02-20T14:26:22.552Z,63.30
2019-02-20T14:28:52.222Z,63.00
2019-02-20T14:31:21.938Z,63.60
2019-02-20T14:33:51.761Z,63.30
2019-02-20T14:36:21.376Z,63.90
2019-02-20T14:38:51.396Z,63.90
2019-02-20T14:41:21.496Z,63.50
2019-02-20T14:43:51.023Z,63.20
2019-02-20T14:46:20.833Z,63.80
2019-02-20T14:48:51.227Z,63.70
2019-02-20T14:51:21.111Z,63.80
2019-02-20T14:53:51.596Z,63.40
2019-02-20T14:56:21.265Z,63.50
2019-02-20T14:58:51.769Z,63.60
2019-02-20T15:01:21.795Z,63.40
2019-02-20T15:03:51.969Z,63.90
2019-02-20T15:06:21.793Z,64.10
2019-02-20T15:08:52.451Z,64.40
2019-02-20T15:11:22.172Z,64.50
2019-02-20T15:13:53.642Z,65.10
2019-02-20T15:16:23.284Z,65.10
2019-02-20T15:18:52.994Z,65.40
2019-02-20T15:21:22.719Z,65.40
2019-02-20T15:23:53.187Z,65.10
2019-02-20T15:26:22.829Z,65.60
2019-02-20T15:28:54.774Z,65.90
2019-02-20T15:31:33.224Z,65.80
2019-02-20T15:33:56.877Z,66.40
2019-02-20T15:36:26.751Z,67.00
2019-02-20T15:38:57.170Z,67.10
2019-02-20T15:41:26.736Z,67.60
2019-02-20T15:43:57.204Z,67.70
2019-02-20T15:46:26.971Z,67.70
2019-02-20T15:48:56.801Z,67.70
2019-02-20T15:51:28.307Z,67.90
2019-02-20T15:53:58.845Z,68.40
2019-02-20T15:56:28.562Z,68.80
2019-02-20T15:58:58.604Z,69.00
2019-02-20T16:01:28.253Z,69.20
2019-02-20T16:03:58.497Z,69.30
2019-02-20T16:06:28.230Z,69.50
2019-02-20T16:08:58.567Z,69.60
2019-02-20T16:11:28.216Z,69.70
2019-02-20T16:13:58.507Z,69.80
2019-02-20T16:16:28.336Z,69.90
2019-02-20T16:18:58.467Z,69.80
2019-02-20T16:21:29.571Z,70.10
2019-02-20T16:24:00.004Z,70.30
2019-02-20T16:26:29.651Z,70.20
2019-02-20T16:28:59.327Z,70.20
2019-02-20T16:31:28.975Z,70.30
2019-02-20T16:33:59.557Z,70.40
2019-02-20T16:36:29.302Z,70.60
2019-02-20T16:39:00.680Z,70.60
2019-02-20T16:41:30.545Z,70.70
2019-02-20T16:44:00.134Z,70.50
2019-02-20T16:46:30.668Z,70.60
2019-02-20T16:49:00.649Z,70.80
2019-02-20T16:51:30.555Z,70.70
2019-02-20T16:54:00.786Z,71.00
2019-02-20T16:56:30.532Z,71.10
2019-02-20T16:59:00.860Z,71.00
2019-02-20T17:01:30.616Z,71.00
2019-02-20T17:04:01.157Z,70.80
2019-02-20T17:06:30.980Z,71.30
2019-02-20T17:09:00.843Z,71.40
2019-02-20T17:11:31.259Z,71.50
2019-02-20T17:14:01.830Z,71.70
2019-02-20T17:16:31.693Z,72.00
2019-02-20T17:19:01.885Z,71.60
2019-02-20T17:21:32.717Z,71.60
2019-02-20T17:24:04.578Z,72.00
2019-02-20T17:26:34.773Z,72.20
2019-02-20T17:29:05.149Z,72.50
2019-02-20T17:31:34.958Z,72.30
2019-02-20T17:34:04.899Z,72.30
2019-02-20T17:36:34.648Z,72.50
2019-02-20T17:39:07.255Z,72.90
2019-02-20T17:41:36.792Z,72.80
2019-02-20T17:44:06.475Z,73.20
2019-02-20T17:46:36.612Z,73.20
2019-02-20T17:49:06.473Z,73.70
2019-02-20T17:51:36.606Z,73.60
2019-02-20T17:54:06.756Z,73.60
2019-02-20T17:56:36.668Z,73.50
2019-02-20T17:59:07.592Z,73.40
2019-02-20T18:01:37.305Z,73.50
2019-02-20T18:04:07.647Z,73.70
2019-02-20T18:06:37.660Z,73.80
2019-02-20T18:09:10.373Z,73.60
2019-02-20T18:11:40.305Z,74.60
2019-02-20T18:14:10.092Z,74.00
2019-02-20T18:16:40.694Z,73.80
2019-02-20T18:19:10.683Z,74.00
2019-02-20T18:21:40.519Z,74.20
2019-02-20T18:24:10.347Z,74.00
2019-02-20T18:26:40.156Z,73.90
2019-02-20T18:29:10.963Z,74.10
2019-02-20T18:31:40.775Z,74.20
2019-02-20T18:34:11.348Z,74.70
2019-02-20T18:36:41.120Z,74.40
2019-02-20T18:39:10.879Z,74.30
2019-02-20T18:41:40.580Z,74.50
2019-02-20T18:44:10.446Z,74.70
2019-02-20T18:46:40.112Z,74.70
2019-02-20T18:49:10.103Z,74.80
2019-02-20T18:51:40.181Z,74.90
2019-02-20T18:54:10.092Z,75.10
2019-02-20T18:56:39.845Z,75.40
2019-02-20T18:59:09.543Z,75.50
2019-02-20T19:01:39.471Z,74.80
2019-02-20T19:04:09.499Z,75.20
2019-02-20T19:06:39.222Z,75.00
2019-02-20T19:09:16.652Z,75.60
2019-02-20T19:12:48.228Z,75.80
2019-02-20T19:15:49.118Z,76.10
2019-02-20T19:19:10.090Z,76.40
2019-02-20T19:22:33.068Z,76.50
2019-02-20T19:25:41.722Z,76.80
2019-02-20T19:28:44.092Z,76.90
2019-02-20T19:31:51.047Z,77.50
2019-02-20T19:35:14.318Z,77.30
2019-02-20T19:38:27.199Z,77.50
2019-02-20T19:41:22.458Z,77.60
2019-02-20T19:44:55.234Z,77.90
2019-02-20T19:47:46.439Z,78.20
2019-02-20T19:50:33.205Z,78.50
2019-02-20T19:53:37.671Z,79.00
2019-02-20T19:56:34.103Z,79.10
2019-02-20T19:59:52.901Z,80.00
2019-02-20T20:02:48.725Z,79.60
2019-02-20T20:06:23.984Z,80.00
2019-02-20T20:09:19.791Z,81.30
2019-02-20T20:12:16.884Z,81.40
2019-02-20T20:15:27.377Z,81.50
2019-02-20T20:18:32.511Z,81.50
2019-02-20T20:21:35.807Z,81.60
2019-02-20T20:24:52.625Z,82.00
2019-02-20T20:27:56.711Z,82.00
2019-02-20T20:30:54.268Z,82.20
2019-02-20T20:39:04.994Z,82.90
2019-02-20T20:42:10.746Z,82.80
2019-02-20T20:50:40.602Z,83.00
2019-02-20T20:53:28.187Z,83.20
2019-02-20T20:56:24.199Z,83.50
2019-02-20T20:59:02.293Z,83.60
2019-02-20T21:01:45.523Z,83.80
2019-02-20T21:04:57.551Z,84.00
2019-02-20T21:07:51.048Z,84.30
2019-02-20T21:10:46.496Z,84.40
2019-02-20T21:14:07.180Z,84.30
2019-02-20T21:17:08.205Z,84.50
2019-02-20T21:20:09.523Z,84.50
2019-02-20T21:23:20.605Z,84.40
2019-02-20T21:26:22.581Z,84.30
2019-02-20T21:29:28.109Z,84.30
2019-02-20T21:32:23.182Z,84.40
2019-02-20T21:35:18.798Z,84.40
2019-02-20T21:38:30.357Z,84.50
2019-02-20T21:41:42.504Z,84.70
2019-02-20T21:44:38.072Z,84.80
2019-02-20T21:47:33.279Z,85.00
2019-02-20T21:50:31.663Z,84.90
2019-02-20T21:53:38.807Z,84.90
2019-02-20T21:56:47.952Z,84.70
2019-02-20T22:00:03.059Z,84.70
2019-02-20T22:03:17.172Z,84.50
2019-02-20T22:06:30.670Z,84.20
2019-02-20T22:09:41.138Z,84.20
2019-02-20T22:12:50.948Z,84.10
2019-02-20T22:15:39.777Z,84.30
2019-02-20T22:18:37.867Z,84.30
2019-02-20T22:21:35.332Z,84.20
2019-02-20T22:24:25.775Z,84.20
2019-02-20T22:27:45.371Z,84.30
2019-02-20T22:30:57.155Z,84.70
2019-02-20T22:33:54.402Z,84.90
2019-02-20T22:37:13.975Z,84.80
2019-02-20T22:40:14.849Z,84.90
2019-02-20T22:43:35.802Z,84.80
2019-02-20T22:47:04.167Z,85.30
2019-02-20T22:49:58.147Z,84.60
2019-02-20T22:52:51.658Z,84.60
2019-02-20T22:56:08.428Z,84.60
2019-02-20T22:58:53.707Z,84.30
2019-02-20T23:02:03.397Z,84.30
2019-02-20T23:04:49.276Z,84.20
2019-02-20T23:08:02.553Z,84.20
2019-02-20T23:11:00.565Z,84.20
2019-02-20T23:13:55.623Z,84.30
2019-02-20T23:16:25.191Z,84.30
2019-02-20T23:18:54.694Z,84.90
2019-02-20T23:21:24.270Z,85.00
2019-02-20T23:23:54.209Z,85.10
2019-02-20T23:26:23.712Z,85.00
2019-02-20T23:28:53.327Z,84.70
2019-02-20T23:31:22.832Z,84.90
2019-02-20T23:33:52.462Z,84.70
2019-02-20T23:36:21.880Z,84.80
2019-02-20T23:38:51.447Z,84.50
2019-02-20T23:41:20.969Z,84.40
2019-02-20T23:43:50.581Z,84.40
2019-02-20T23:46:20.132Z,84.30
2019-02-20T23:48:49.686Z,84.30
2019-02-20T23:51:19.195Z,84.20
2019-02-20T23:53:48.836Z,84.10
2019-02-20T23:56:18.357Z,84.00
2019-02-20T23:58:47.986Z,83.70
